Time;durP1;ratioP1;P1;durP2;ratioP2;P2;SDS_P1;SDS_P2;PMS_P1;PMS_P2;Temp;Humidity;BMP_temperature;BMP_pressure;BME280_temperature;BME280_humidity;BME280_pressure;Samples;Min_cycle;Max_cycle;Signal;HPM_P1;HPM_P2
2022/08/22 00:00:12;;;;;;;7.53;6.05;;;;;;;;;;5053501;28;20046;-82
2022/08/22 00:02:57;;;;;;;7.18;6.47;;;;;;;;;;5051541;28;20391;-81
2022/08/22 00:05:23;;;;;;;6.90;6.18;;;;;;;;;;5053147;28;20074;-79
2022/08/22 00:07:49;;;;;;;7.78;6.82;;;;;;;;;;5053342;28;20025;-79
2022/08/22 00:10:34;;;;;;;7.40;6.60;;;;;;;;;;5053002;28;20032;-82
2022/08/22 00:13:07;;;;;;;8.60;7.68;;;;;;;;;;5052789;28;20021;-78
2022/08/22 00:15:56;;;;;;;8.25;6.35;;;;;;;;;;5053018;28;20033;-78
2022/08/22 00:18:28;;;;;;;8.73;7.22;;;;;;;;;;5050261;28;20483;-79
2022/08/22 00:21:12;;;;;;;7.78;7.07;;;;;;;;;;5053040;28;20021;-79
2022/08/22 00:23:38;;;;;;;7.43;6.72;;;;;;;;;;5052988;28;20021;-78
2022/08/22 00:26:25;;;;;;;9.30;8.40;;;;;;;;;;5051518;28;20052;-82
2022/08/22 00:28:52;;;;;;;9.10;8.20;;;;;;;;;;5052740;28;20056;-78
2022/08/22 00:31:18;;;;;;;10.23;9.23;;;;;;;;;;5052659;28;20476;-80
2022/08/22 00:33:47;;;;;;;9.70;7.72;;;;;;;;;;5052670;28;20040;-79
2022/08/22 00:36:21;;;;;;;8.40;7.47;;;;;;;;;;5052522;28;20438;-78
2022/08/22 00:38:47;;;;;;;;;;;;;;;;;;5051786;28;20056;-80
2022/08/22 00:41:28;;;;;;;9.02;8.23;;;;;;;;;;5051868;28;19951;-78
2022/08/22 00:44:15;;;;;;;10.32;8.57;;;;;;;;;;5052440;28;20071;-81
2022/08/22 00:46:47;;;;;;;9.68;8.68;;;;;;;;;;5052423;28;20035;-82
2022/08/22 00:49:22;;;;;;;9.77;8.75;;;;;;;;;;5051714;28;20039;-80
2022/08/22 00:51:51;;;;;;;10.10;8.98;;;;;;;;;;5051243;28;20033;-77
2022/08/22 00:54:38;;;;;;;10.95;9.38;;;;;;;;;;5051700;28;20033;-79
2022/08/22 00:57:23;;;;;;;10.63;9.63;;;;;;;;;;5052033;28;20068;-81
2022/08/22 00:59:48;;;;;;;;;;;;;;;;;;5052773;28;20025;-82
2022/08/22 01:02:30;;;;;;;11.32;9.25;;;;;;;;;;5052531;28;19916;-81
2022/08/22 01:04:56;;;;;;;10.27;9.27;;;;;;;;;;5052270;28;20028;-80
2022/08/22 01:07:41;;;;;;;10.52;9.52;;;;;;;;;;5052458;28;20024;-83
2022/08/22 01:10:17;;;;;;;11.18;10.07;;;;;;;;;;5052460;28;20024;-83
2022/08/22 01:12:52;;;;;;;12.30;9.32;;;;;;;;;;5052317;28;20065;-84
2022/08/22 01:15:22;;;;;;;11.55;10.07;;;;;;;;;;5050704;28;20028;-83
2022/08/22 01:17:51;;;;;;;10.68;9.55;;;;;;;;;;5052252;28;20480;-81
2022/08/22 01:20:26;;;;;;;9.98;8.98;;;;;;;;;;5050820;28;20020;-85
2022/08/22 01:23:11;;;;;;;10.15;9.15;;;;;;;;;;5051023;28;20025;-81
2022/08/22 01:25:56;;;;;;;11.90;9.27;;;;;;;;;;5051798;28;20079;-81
2022/08/22 01:28:21;;;;;;;;;;;;;;;;;;5051371;28;20116;-82
2022/08/22 01:30:58;;;;;;;9.70;8.70;;;;;;;;;;5052046;28;20466;-82
2022/08/22 01:33:40;;;;;;;9.70;8.70;;;;;;;;;;5050689;28;20021;-81
2022/08/22 01:36:09;;;;;;;10.35;9.30;;;;;;;;;;5050692;28;20365;-81
2022/08/22 01:38:54;;;;;;;10.95;9.80;;;;;;;;;;5054819;28;20025;-82
2022/08/22 01:41:28;;;;;;;10.93;8.88;;;;;;;;;;5054980;28;20032;-81
2022/08/22 01:44:13;;;;;;;10.35;9.27;;;;;;;;;;5055836;28;20108;-81
2022/08/22 01:46:47;;;;;;;10.40;9.40;;;;;;;;;;5055756;28;20025;-82
2022/08/22 01:49:39;;;;;;;12.32;8.73;;;;;;;;;;5055930;28;20020;-81
2022/08/22 01:52:15;;;;;;;11.15;9.75;;;;;;;;;;5051853;28;20033;-82
2022/08/22 01:54:50;;;;;;;10.65;9.50;;;;;;;;;;5055674;28;20495;-82
2022/08/22 01:57:18;;;;;;;10.43;9.43;;;;;;;;;;5055790;28;20029;-81
2022/08/22 01:59:46;;;;;;;11.65;10.00;;;;;;;;;;5055601;28;20021;-84
2022/08/22 02:02:20;;;;;;;11.52;10.32;;;;;;;;;;5054431;28;20433;-82
2022/08/22 02:04:46;;;;;;;14.55;11.55;;;;;;;;;;5055452;28;20025;-81
2022/08/22 02:07:12;;;;;;;13.00;9.80;;;;;;;;;;5054303;28;20127;-83
2022/08/22 02:10:14;;;;;;;11.57;10.38;;;;;;;;;;5054375;28;20059;-82
2022/08/22 02:12:40;;;;;;;12.15;10.32;;;;;;;;;;5013600;28;20125;-81
2022/08/22 02:15:25;;;;;;;11.50;10.35;;;;;;;;;;5042151;28;20483;-81
2022/08/22 02:17:54;;;;;;;11.32;10.15;;;;;;;;;;5055305;28;20124;-81
2022/08/22 02:20:24;;;;;;;12.20;11.00;;;;;;;;;;5055122;28;20395;-83
2022/08/22 02:23:09;;;;;;;12.40;10.32;;;;;;;;;;5055269;28;20033;-82
2022/08/22 02:25:54;;;;;;;11.55;10.30;;;;;;;;;;5055023;28;20036;-82
2022/08/22 02:28:38;;;;;;;12.32;11.10;;;;;;;;;;5055369;28;20534;-81
2022/08/22 02:31:12;;;;;;;11.18;9.98;;;;;;;;;;5055205;28;20029;-81
2022/08/22 02:33:38;;;;;;;12.93;10.63;;;;;;;;;;5055132;28;20055;-83
2022/08/22 02:36:23;;;;;;;11.45;10.25;;;;;;;;;;5055020;28;20041;-82
2022/08/22 02:39:08;;;;;;;13.02;10.30;;;;;;;;;;5054999;28;20021;-81
2022/08/22 02:41:43;;;;;;;11.25;10.10;;;;;;;;;;5053724;28;20029;-82
2022/08/22 02:44:12;;;;;;;11.05;9.90;;;;;;;;;;5054935;28;20024;-82
2022/08/22 02:46:41;;;;;;;12.75;11.27;;;;;;;;;;5054617;28;20071;-82
2022/08/22 02:49:26;;;;;;;13.25;10.38;;;;;;;;;;5054179;28;20043;-83
2022/08/22 02:52:02;;;;;;;11.80;10.00;;;;;;;;;;5054652;28;20531;-82
2022/08/22 02:54:28;;;;;;;11.85;10.50;;;;;;;;;;5054424;28;20464;-82
2022/08/22 02:57:15;;;;;;;11.85;10.65;;;;;;;;;;5054494;28;20040;-81
2022/08/22 03:00:00;;;;;;;14.13;12.52;;;;;;;;;;5053082;28;20059;-81
2022/08/22 03:02:29;;;;;;;12.68;11.40;;;;;;;;;;5054586;28;20104;-81
2022/08/22 03:04:57;;;;;;;13.63;12.25;;;;;;;;;;5054153;28;20036;-82
2022/08/22 03:07:37;;;;;;;11.43;10.23;;;;;;;;;;5054502;28;20021;-81
2022/08/22 03:10:22;;;;;;;12.85;11.10;;;;;;;;;;5054475;28;20033;-82
2022/08/22 03:12:54;;;;;;;15.20;11.40;;;;;;;;;;5054293;28;20032;-82
2022/08/22 03:15:25;;;;;;;14.02;11.63;;;;;;;;;;5054045;28;20108;-81
2022/08/22 03:18:02;;;;;;;13.05;10.93;;;;;;;;;;5054219;28;20057;-81
2022/08/22 03:20:34;;;;;;;11.60;10.40;;;;;;;;;;5054313;28;20025;-81
2022/08/22 03:23:05;;;;;;;13.15;11.00;;;;;;;;;;5053965;28;20063;-82
2022/08/22 03:25:52;;;;;;;12.05;10.52;;;;;;;;;;5054138;28;20033;-82
2022/08/22 03:28:21;;;;;;;12.05;10.85;;;;;;;;;;5053844;28;20039;-81
2022/08/22 03:30:50;;;;;;;13.50;12.20;;;;;;;;;;5053649;28;20143;-82
2022/08/22 03:33:18;;;;;;;12.43;10.77;;;;;;;;;;5054157;28;20024;-84
2022/08/22 03:35:44;;;;;;;14.27;12.80;;;;;;;;;;5053834;28;20472;-84
2022/08/22 03:38:19;;;;;;;11.55;10.35;;;;;;;;;;5054047;28;20032;-84
2022/08/22 03:41:08;;;;;;;59.80;52.25;;;;;;;;;;5053684;28;20545;-83
2022/08/22 03:43:53;;;;;;;14.15;12.75;;;;;;;;;;5048406;28;20553;-84
2022/08/22 03:46:38;;;;;;;15.50;13.07;;;;;;;;;;5054126;28;20392;-85
2022/08/22 03:49:04;;;;;;;;;;;;;;;;;;5052846;28;20433;-85
2022/08/22 03:51:52;;;;;;;12.82;11.52;;;;;;;;;;5052659;28;19905;-84
2022/08/22 03:54:36;;;;;;;13.10;11.70;;;;;;;;;;5053718;28;20049;-83
2022/08/22 03:57:05;;;;;;;11.88;9.25;;;;;;;;;;5052393;28;20395;-84
2022/08/22 04:00:01;;;;;;;11.25;10.13;;;;;;;;;;5053266;28;20041;-85
2022/08/22 04:02:46;;;;;;;10.70;9.57;;;;;;;;;;5052321;28;20067;-84
2022/08/22 04:05:35;;;;;;;11.45;10.07;;;;;;;;;;5052520;28;20029;-85
2022/08/22 04:11:29;;;;;;;11.45;9.68;;;;;;;;;;5053352;28;20392;-85
2022/08/22 04:14:14;;;;;;;11.70;10.52;;;;;;;;;;5052145;28;20048;-85
2022/08/22 04:17:00;;;;;;;12.27;10.85;;;;;;;;;;5053259;28;20033;-86
2022/08/22 04:19:44;;;;;;;12.18;9.70;;;;;;;;;;5052070;28;20024;-86
2022/08/22 04:22:29;;;;;;;13.50;11.70;;;;;;;;;;5051956;28;20033;-86
2022/08/22 04:24:56;;;;;;;12.27;11.07;;;;;;;;;;5051545;28;20028;-85
2022/08/22 04:27:22;;;;;;;12.30;11.00;;;;;;;;;;5051760;28;20055;-86
2022/08/22 04:30:06;;;;;;;12.60;11.27;;;;;;;;;;5051738;28;20025;-86
2022/08/22 04:32:40;;;;;;;14.93;11.23;;;;;;;;;;5053033;28;20378;-86
2022/08/22 04:35:19;;;;;;;11.55;10.35;;;;;;;;;;5052812;28;20025;-86
2022/08/22 04:37:53;;;;;;;12.50;10.95;;;;;;;;;;5052803;28;20115;-86
2022/08/22 04:40:22;;;;;;;;;;;;;;;;;;5052816;28;20029;-88
2022/08/22 04:43:11;;;;;;;12.35;10.80;;;;;;;;;;5051159;28;19905;-84
2022/08/22 04:45:50;;;;;;;12.02;10.77;;;;;;;;;;5047092;28;20033;-84
2022/08/22 04:48:21;;;;;;;14.70;11.65;;;;;;;;;;5051483;28;20060;-86
2022/08/22 04:50:53;;;;;;;11.80;10.40;;;;;;;;;;5052592;28;20083;-87
2022/08/22 04:53:23;;;;;;;11.82;10.68;;;;;;;;;;5051406;28;20063;-85
2022/08/22 04:56:08;;;;;;;12.15;10.55;;;;;;;;;;5052463;28;20029;-85
2022/08/22 04:58:54;;;;;;;12.43;11.13;;;;;;;;;;5051332;28;20025;-85
2022/08/22 05:01:46;;;;;;;12.27;11.07;;;;;;;;;;5051283;28;20032;-86
2022/08/22 05:04:31;;;;;;;10.88;9.77;;;;;;;;;;5036807;28;20475;-83
2022/08/22 05:06:57;;;;;;;;;;;;;;;;;;5051188;28;20383;-83
2022/08/22 05:09:42;;;;;;;13.40;11.07;;;;;;;;;;5052312;28;19995;-79
2022/08/22 05:12:13;;;;;;;14.45;11.13;;;;;;;;;;5035399;28;20120;-83
2022/08/22 05:14:39;;;;;;;11.82;10.57;;;;;;;;;;5032495;28;20028;-83
2022/08/22 05:17:10;;;;;;;12.40;11.10;;;;;;;;;;5032012;28;20400;-84
2022/08/22 05:19:49;;;;;;;12.20;10.95;;;;;;;;;;5032321;28;20392;-83
2022/08/22 05:22:18;;;;;;;11.45;10.25;;;;;;;;;;5032318;28;20037;-83
2022/08/22 05:24:47;;;;;;;11.95;10.75;;;;;;;;;;5041422;28;20029;-83
2022/08/22 05:27:16;;;;;;;11.98;10.57;;;;;;;;;;5035665;28;20057;-83
2022/08/22 05:29:45;;;;;;;11.27;10.18;;;;;;;;;;5040158;28;20036;-83
2022/08/22 05:32:15;;;;;;;10.45;9.45;;;;;;;;;;5044028;28;20091;-88
2022/08/22 05:34:42;;;;;;;12.85;11.05;;;;;;;;;;5037775;28;20036;-86
2022/08/22 05:40:37;;;;;;;12.18;10.63;;;;;;;;;;5007393;28;20134;-84
2022/08/22 05:43:04;;;;;;;12.45;11.07;;;;;;;;;;4997526;28;20041;-84
2022/08/22 05:45:33;;;;;;;12.02;10.77;;;;;;;;;;5033380;28;20550;-84
2022/08/22 05:48:12;;;;;;;12.25;10.40;;;;;;;;;;5043928;28;20032;-87
2022/08/22 05:50:38;;;;;;;12.48;10.90;;;;;;;;;;5049254;28;20029;-84
2022/08/22 05:53:09;;;;;;;11.95;10.73;;;;;;;;;;5047399;28;20105;-85
2022/08/22 05:55:41;;;;;;;15.75;12.32;;;;;;;;;;5044684;28;20033;-84
2022/08/22 05:58:26;;;;;;;11.30;10.20;;;;;;;;;;5051381;28;20472;-82
2022/08/22 06:01:12;;;;;;;12.40;11.07;;;;;;;;;;5033076;28;20101;-85
2022/08/22 06:03:45;;;;;;;12.05;10.32;;;;;;;;;;5042571;28;20024;-83
2022/08/22 06:06:14;;;;;;;10.98;9.90;;;;;;;;;;5047062;28;20090;-82
2022/08/22 06:08:47;;;;;;;11.85;10.65;;;;;;;;;;5049859;28;20480;-83
2022/08/22 06:11:13;;;;;;;12.63;10.55;;;;;;;;;;5047820;28;20040;-85
2022/08/22 06:13:51;;;;;;;12.57;10.48;;;;;;;;;;5051528;28;20071;-81
2022/08/22 06:16:23;;;;;;;12.45;10.23;;;;;;;;;;5052835;28;20047;-83
2022/08/22 06:18:50;;;;;;;12.38;11.10;;;;;;;;;;5044102;28;20129;-83
2022/08/22 06:21:30;;;;;;;13.68;11.57;;;;;;;;;;5044973;28;20029;-81
2022/08/22 06:23:58;;;;;;;12.23;10.93;;;;;;;;;;5053412;28;20574;-81
2022/08/22 06:26:25;;;;;;;15.02;13.40;;;;;;;;;;5053382;28;20135;-81
2022/08/22 06:28:54;;;;;;;12.02;10.73;;;;;;;;;;5045707;28;20100;-81
2022/08/22 06:31:22;;;;;;;14.13;12.68;;;;;;;;;;5051778;28;20135;-82
2022/08/22 06:34:07;;;;;;;11.80;10.60;;;;;;;;;;5049361;28;20055;-81
2022/08/22 06:36:34;;;;;;;10.77;9.73;;;;;;;;;;5051239;28;20038;-80
2022/08/22 06:39:07;;;;;;;11.05;8.73;;;;;;;;;;5048798;28;20434;-85
2022/08/22 06:41:37;;;;;;;10.35;9.25;;;;;;;;;;5041210;28;20140;-81
2022/08/22 06:44:04;;;;;;;11.50;10.10;;;;;;;;;;5052559;28;20029;-82
2022/08/22 06:46:34;;;;;;;12.20;10.02;;;;;;;;;;5047259;28;20085;-82
2022/08/22 06:49:03;;;;;;;11.32;9.65;;;;;;;;;;5044158;28;20535;-82
2022/08/22 06:51:30;;;;;;;11.90;10.80;;;;;;;;;;5051270;28;20017;-82
2022/08/22 06:54:00;;;;;;;11.18;10.05;;;;;;;;;;5043516;28;20037;-81
2022/08/22 06:56:29;;;;;;;12.10;10.90;;;;;;;;;;5036891;28;20032;-83
2022/08/22 06:58:56;;;;;;;12.70;11.50;;;;;;;;;;5048367;28;20037;-80
2022/08/22 07:01:25;;;;;;;10.48;9.48;;;;;;;;;;5047032;28;20028;-83
2022/08/22 07:03:51;;;;;;;11.82;9.57;;;;;;;;;;5053131;28;20036;-81
2022/08/22 07:06:29;;;;;;;11.20;10.10;;;;;;;;;;5049713;28;20028;-82
2022/08/22 07:08:55;;;;;;;13.13;11.23;;;;;;;;;;5036344;28;20102;-82
2022/08/22 07:11:29;;;;;;;10.07;9.07;;;;;;;;;;5052605;28;20030;-79
2022/08/22 07:13:56;;;;;;;;;;;;;;;;;;5043407;28;20025;-82
2022/08/22 07:16:28;;;;;;;12.02;10.77;;;;;;;;;;5050195;28;19932;-80
2022/08/22 07:18:54;;;;;;;10.05;9.05;;;;;;;;;;5048542;28;20029;-80
2022/08/22 07:21:40;;;;;;;9.90;8.90;;;;;;;;;;5042359;28;20028;-82
2022/08/22 07:24:07;;;;;;;9.10;8.27;;;;;;;;;;5048082;28;20028;-83
2022/08/22 07:26:33;;;;;;;10.45;9.25;;;;;;;;;;5046556;28;20061;-82
2022/08/22 07:29:05;;;;;;;11.07;8.80;;;;;;;;;;5049308;28;20159;-83
2022/08/22 07:31:37;;;;;;;10.88;9.77;;;;;;;;;;5050682;28;20465;-82
2022/08/22 07:34:22;;;;;;;9.68;8.68;;;;;;;;;;5052506;28;20032;-84
2022/08/22 07:37:06;;;;;;;9.63;8.63;;;;;;;;;;5031297;28;20041;-83
2022/08/22 07:39:36;;;;;;;9.95;9.00;;;;;;;;;;5043251;28;20598;-84
2022/08/22 07:42:10;;;;;;;9.05;8.25;;;;;;;;;;5050082;28;20066;-83
2022/08/22 07:44:55;;;;;;;11.73;8.77;;;;;;;;;;5041179;28;20021;-83
2022/08/22 07:47:22;;;;;;;8.50;7.70;;;;;;;;;;5047135;28;20024;-82
2022/08/22 07:50:01;;;;;;;9.18;8.27;;;;;;;;;;5047617;28;20120;-81
2022/08/22 07:52:30;;;;;;;9.65;8.75;;;;;;;;;;5045733;28;20055;-84
2022/08/22 07:54:58;;;;;;;16.98;14.18;;;;;;;;;;5049403;28;20032;-83
2022/08/22 07:57:29;;;;;;;9.15;7.85;;;;;;;;;;5051281;28;20032;-81
2022/08/22 07:59:57;;;;;;;10.00;9.07;;;;;;;;;;5043751;28;20111;-83
2022/08/22 08:02:24;;;;;;;13.00;10.60;;;;;;;;;;5041475;28;20029;-86
2022/08/22 08:04:52;;;;;;;15.02;13.63;;;;;;;;;;5040371;28;20033;-83
2022/08/22 08:07:20;;;;;;;8.60;7.68;;;;;;;;;;5048184;28;20060;-84
2022/08/22 08:10:13;;;;;;;9.13;8.20;;;;;;;;;;5047896;28;20108;-86
2022/08/22 08:12:40;;;;;;;9.10;8.20;;;;;;;;;;5047473;28;20029;-81
2022/08/22 08:15:10;;;;;;;9.57;8.57;;;;;;;;;;5044222;28;20028;-83
2022/08/22 08:17:37;;;;;;;10.70;8.57;;;;;;;;;;5031844;28;20021;-83
2022/08/22 08:20:06;;;;;;;9.70;8.50;;;;;;;;;;5038941;28;20086;-82
2022/08/22 08:22:43;;;;;;;9.07;8.18;;;;;;;;;;5049654;28;20059;-85
2022/08/22 08:25:12;;;;;;;8.75;7.80;;;;;;;;;;5045781;28;20365;-79
2022/08/22 08:30:43;;;;;;;9.95;8.98;;;;;;;;;;5037050;28;20044;-82
2022/08/22 08:33:13;;;;;;;10.30;8.57;;;;;;;;;;5048603;28;20108;-79
2022/08/22 08:35:40;;;;;;;9.27;8.40;;;;;;;;;;5045732;28;20033;-78
2022/08/22 08:38:07;;;;;;;7.75;6.95;;;;;;;;;;5046028;28;20422;-64
2022/08/22 08:40:33;;;;;;;9.82;8.52;;;;;;;;;;5043957;28;20044;-81
2022/08/22 08:46:13;;;;;;;8.77;7.88;;;;;;;;;;5043621;28;20068;-83
2022/08/22 08:48:58;;;;;;;8.68;7.78;;;;;;;;;;5047687;28;20372;-85
2022/08/22 08:51:36;;;;;;;9.43;8.13;;;;;;;;;;5052211;28;20059;-85
2022/08/22 08:54:02;;;;;;;8.25;7.55;;;;;;;;;;5052462;28;20535;-83
2022/08/22 08:56:36;;;;;;;8.50;7.60;;;;;;;;;;5049348;28;20056;-85
2022/08/22 08:59:02;;;;;;;8.65;7.75;;;;;;;;;;5050415;28;20033;-84
2022/08/22 09:01:36;;;;;;;9.25;8.23;;;;;;;;;;5052428;28;20072;-82
2022/08/22 09:04:06;;;;;;;8.80;8.02;;;;;;;;;;5047281;28;20031;-85
2022/08/22 09:06:51;;;;;;;8.48;7.68;;;;;;;;;;5052071;28;20028;-84
2022/08/22 09:09:27;;;;;;;8.23;7.43;;;;;;;;;;5050625;28;20057;-83
2022/08/22 09:11:56;;;;;;;7.97;6.93;;;;;;;;;;5050280;28;20055;-83
2022/08/22 09:14:41;;;;;;;7.97;7.18;;;;;;;;;;5043270;28;20048;-84
2022/08/22 09:17:26;;;;;;;8.88;8.07;;;;;;;;;;5049472;28;20033;-85
2022/08/22 09:20:03;;;;;;;8.80;8.00;;;;;;;;;;5032023;28;20074;-84
2022/08/22 09:22:48;;;;;;;8.32;7.47;;;;;;;;;;5044312;28;20147;-84
2022/08/22 09:25:22;;;;;;;7.82;7.13;;;;;;;;;;5048161;28;20119;-84
2022/08/22 09:27:55;;;;;;;10.00;7.47;;;;;;;;;;5045890;28;20146;-83
2022/08/22 09:30:23;;;;;;;8.43;7.63;;;;;;;;;;5049526;28;20028;-83
2022/08/22 09:32:54;;;;;;;8.35;7.50;;;;;;;;;;5048931;28;20047;-83
2022/08/22 09:35:23;;;;;;;9.45;6.95;;;;;;;;;;5050168;28;20464;-83
2022/08/22 09:37:49;;;;;;;10.70;9.48;;;;;;;;;;5046690;28;20582;-81
2022/08/22 09:40:34;;;;;;;9.50;8.43;;;;;;;;;;5036366;28;20091;-82
2022/08/22 09:43:19;;;;;;;11.75;10.75;;;;;;;;;;5049794;28;20021;-83
2022/08/22 09:46:03;;;;;;;7.85;6.93;;;;;;;;;;5049428;28;20025;-82
2022/08/22 09:48:33;;;;;;;8.45;7.65;;;;;;;;;;5050499;28;20075;-83
2022/08/22 09:50:59;;;;;;;10.75;9.75;;;;;;;;;;5049099;28;20083;-85
2022/08/22 09:53:44;;;;;;;8.98;7.80;;;;;;;;;;5038592;28;20036;-84
2022/08/22 09:56:29;;;;;;;8.85;7.95;;;;;;;;;;5044320;28;20110;-85
2022/08/22 09:59:04;;;;;;;9.85;8.63;;;;;;;;;;5048215;28;20032;-84
2022/08/22 10:01:39;;;;;;;10.88;9.75;;;;;;;;;;5051592;28;20053;-86
2022/08/22 10:04:24;;;;;;;9.18;8.35;;;;;;;;;;5039763;28;20017;-85
2022/08/22 10:07:05;;;;;;;9.20;8.05;;;;;;;;;;5053132;28;20057;-86
2022/08/22 10:09:52;;;;;;;12.98;11.27;;;;;;;;;;5052080;28;20163;-85
2022/08/22 10:12:39;;;;;;;10.85;9.75;;;;;;;;;;5038252;28;20048;-86
2022/08/22 10:15:22;;;;;;;8.48;7.70;;;;;;;;;;5045507;28;20033;-87
2022/08/22 10:17:53;;;;;;;9.82;8.43;;;;;;;;;;5053318;28;20025;-86
2022/08/22 10:20:30;;;;;;;10.10;9.10;;;;;;;;;;5051087;28;20037;-87
2022/08/22 10:26:11;;;;;;;67.38;61.50;;;;;;;;;;5048298;28;20072;-87
2022/08/22 10:29:07;;;;;;;9.95;8.95;;;;;;;;;;5051926;28;20013;-85
2022/08/22 10:31:33;;;;;;;11.10;9.20;;;;;;;;;;5063761;28;20041;-87
2022/08/22 10:34:15;;;;;;;9.27;8.38;;;;;;;;;;5049605;28;20480;-87
2022/08/22 10:37:00;;;;;;;10.13;9.15;;;;;;;;;;5053459;28;20033;-87
2022/08/22 10:39:46;;;;;;;8.57;7.85;;;;;;;;;;5050276;28;20032;-87
2022/08/22 10:42:19;;;;;;;9.23;8.32;;;;;;;;;;5058710;28;20024;-87
2022/08/22 10:45:03;;;;;;;9.48;8.43;;;;;;;;;;5054174;28;20672;-88
2022/08/22 10:47:44;;;;;;;8.35;7.50;;;;;;;;;;5047811;28;20029;-87
2022/08/22 10:50:17;;;;;;;9.48;8.48;;;;;;;;;;5051213;28;20040;-86
2022/08/22 10:52:50;;;;;;;10.05;9.02;;;;;;;;;;5054841;28;20147;-88
2022/08/22 10:55:38;;;;;;;11.40;10.30;;;;;;;;;;5043070;28;20025;-84
2022/08/22 10:58:15;;;;;;;9.55;8.55;;;;;;;;;;5050883;28;20112;-84
2022/08/22 11:00:57;;;;;;;8.60;7.70;;;;;;;;;;5056935;28;20055;-83
2022/08/22 11:03:42;;;;;;;9.10;8.25;;;;;;;;;;5045628;28;20047;-87
2022/08/22 11:06:30;;;;;;;9.38;8.48;;;;;;;;;;5052655;28;20021;-85
2022/08/22 11:08:57;;;;;;;9.25;8.45;;;;;;;;;;5051128;28;20526;-86
2022/08/22 11:11:58;;;;;;;10.38;8.52;;;;;;;;;;5049896;28;20017;-86
2022/08/22 11:14:43;;;;;;;10.43;8.50;;;;;;;;;;5040213;28;20472;-84
2022/08/22 11:17:12;;;;;;;9.93;8.82;;;;;;;;;;5043080;28;20396;-87
2022/08/22 11:25:24;;;;;;;8.15;7.45;;;;;;;;;;5043667;28;20029;-88
2022/08/22 11:27:56;;;;;;;9.57;8.52;;;;;;;;;;5047313;28;20045;-85
2022/08/22 11:30:41;;;;;;;8.85;8.05;;;;;;;;;;5048271;28;20029;-88
2022/08/22 11:36:45;;;;;;;8.95;8.15;;;;;;;;;;5037381;28;20025;-87
2022/08/22 11:39:30;;;;;;;9.57;8.13;;;;;;;;;;5046248;28;20032;-85
2022/08/22 11:42:28;;;;;;;9.35;8.43;;;;;;;;;;5053016;28;20446;-85
2022/08/22 11:44:56;;;;;;;12.20;9.07;;;;;;;;;;5010450;28;20574;-85
2022/08/22 11:47:29;;;;;;;8.50;7.68;;;;;;;;;;5047496;28;20041;-87
2022/08/22 11:49:56;;;;;;;9.80;8.55;;;;;;;;;;5052383;28;20036;-87
2022/08/22 11:52:28;;;;;;;9.50;8.00;;;;;;;;;;5048867;28;20025;-87
2022/08/22 11:55:04;;;;;;;8.52;7.72;;;;;;;;;;5050347;28;20055;-87
2022/08/22 11:57:49;;;;;;;10.02;9.02;;;;;;;;;;5045977;28;20024;-84
2022/08/22 12:00:16;;;;;;;11.25;8.48;;;;;;;;;;5043585;28;20079;-87
2022/08/22 12:03:08;;;;;;;8.50;7.70;;;;;;;;;;5049974;28;20491;-88
2022/08/22 12:05:53;;;;;;;9.00;8.13;;;;;;;;;;5054411;28;20037;-88
2022/08/22 12:08:39;;;;;;;10.10;9.07;;;;;;;;;;5052490;28;20487;-84
2022/08/22 12:11:11;;;;;;;7.72;7.03;;;;;;;;;;5046907;28;20029;-87
2022/08/22 12:13:48;;;;;;;8.75;7.93;;;;;;;;;;5048959;28;20060;-85
2022/08/22 12:16:32;;;;;;;16.10;8.35;;;;;;;;;;5049448;28;20021;-83
2022/08/22 12:19:17;;;;;;;9.40;7.63;;;;;;;;;;5053767;28;20116;-84
2022/08/22 12:21:46;;;;;;;8.45;7.63;;;;;;;;;;5052145;28;20487;-84
2022/08/22 12:24:12;;;;;;;10.25;8.50;;;;;;;;;;5052226;28;20074;-86
2022/08/22 12:27:01;;;;;;;8.68;7.80;;;;;;;;;;5052181;28;20403;-84
2022/08/22 12:29:27;;;;;;;9.80;8.88;;;;;;;;;;5034283;28;20483;-88
2022/08/22 12:32:15;;;;;;;9.23;8.38;;;;;;;;;;5045080;28;20052;-85
2022/08/22 12:34:41;;;;;;;8.93;7.85;;;;;;;;;;5037069;28;20018;-88
2022/08/22 12:37:07;;;;;;;8.13;7.32;;;;;;;;;;5038348;28;20025;-83
2022/08/22 12:39:36;;;;;;;10.50;9.20;;;;;;;;;;5051889;28;20063;-81
2022/08/22 12:42:13;;;;;;;8.90;7.07;;;;;;;;;;5050348;28;20052;-84
2022/08/22 12:45:06;;;;;;;7.20;6.55;;;;;;;;;;5044588;28;20103;-85
2022/08/22 12:47:38;;;;;;;8.55;7.75;;;;;;;;;;5045106;28;20112;-84
2022/08/22 12:50:23;;;;;;;12.93;11.73;;;;;;;;;;5046885;28;20083;-87
2022/08/22 12:52:55;;;;;;;13.05;11.75;;;;;;;;;;5055044;28;20102;-86
2022/08/22 12:55:21;;;;;;;11.00;9.30;;;;;;;;;;5048814;28;20508;-86
2022/08/22 12:58:13;;;;;;;7.65;6.95;;;;;;;;;;5046303;28;20033;-85
2022/08/22 13:00:46;;;;;;;7.30;6.60;;;;;;;;;;5047694;28;20028;-86
2022/08/22 13:03:31;;;;;;;8.63;7.72;;;;;;;;;;5048732;28;20033;-86
2022/08/22 13:09:21;;;;;;;;;;;;;;;;;;;;;
2022/08/22 13:12:08;;;;;;;8.27;7.47;;;;;;;;;;5029809;28;20021;-87
2022/08/22 13:15:02;;;;;;;;;;;;;;;;;;;;;
2022/08/22 13:17:29;;;;;;;8.13;7.32;;;;;;;;;;5053301;28;20027;-86
2022/08/22 13:23:08;;;;;;;8.70;7.90;;;;;;;;;;5021423;28;20025;-86
2022/08/22 13:32:01;;;;;;;;;;;;;;;;;;;;;
2022/08/22 13:38:00;;;;;;;7.95;7.20;;;;;;;;;;5014217;28;20057;-86
2022/08/22 13:40:43;;;;;;;;;;;;;;;;;;;;;
2022/08/22 13:46:23;;;;;;;9.27;8.10;;;;;;;;;;5014123;28;20084;-87
2022/08/22 13:48:50;;;;;;;8.63;7.55;;;;;;;;;;5014527;28;20076;-88
2022/08/22 13:51:23;;;;;;;8.63;7.72;;;;;;;;;;5026372;28;20037;-84
2022/08/22 13:53:54;;;;;;;8.23;7.07;;;;;;;;;;5036205;28;20029;-86
2022/08/22 13:56:23;;;;;;;8.35;7.60;;;;;;;;;;5035953;28;20029;-86
2022/08/22 13:58:51;;;;;;;9.55;8.20;;;;;;;;;;5036405;28;20028;-87
2022/08/22 14:01:23;;;;;;;8.63;7.82;;;;;;;;;;5036167;28;20029;-85
2022/08/22 14:03:57;;;;;;;10.27;8.25;;;;;;;;;;5036272;28;20017;-86
2022/08/22 14:06:42;;;;;;;7.82;7.05;;;;;;;;;;5035808;28;20057;-88
2022/08/22 14:09:14;;;;;;;8.38;7.53;;;;;;;;;;5036031;28;20025;-87
2022/08/22 14:11:42;;;;;;;9.70;7.75;;;;;;;;;;5035604;28;20029;-86
2022/08/22 14:14:09;;;;;;;8.10;7.32;;;;;;;;;;5035922;28;20025;-87
2022/08/22 14:16:44;;;;;;;7.63;6.85;;;;;;;;;;5050834;28;20026;-86
2022/08/22 14:19:11;;;;;;;7.18;6.10;;;;;;;;;;5035873;28;20389;-85
2022/08/22 14:21:40;;;;;;;7.32;4.88;;;;;;;;;;5035061;28;20021;-86
2022/08/22 14:24:27;;;;;;;8.70;5.57;;;;;;;;;;5035722;28;20018;-85
2022/08/22 14:30:00;;;;;;;14.52;8.10;;;;;;;;;;5035737;28;20107;-85
2022/08/22 14:32:26;;;;;;;11.18;9.63;;;;;;;;;;5035666;28;20072;-85
2022/08/22 14:35:06;;;;;;;13.20;9.90;;;;;;;;;;5035616;28;20503;-87
2022/08/22 14:49:54;;;;;;;15.05;11.55;;;;;;;;;;5129275;27;20740;-83
2022/08/22 14:52:30;;;;;;;19.27;13.68;;;;;;;;;;5130034;27;20037;-83
2022/08/22 14:55:23;;;;;;;15.02;11.60;;;;;;;;;;5130758;27;20023;-81
2022/08/22 14:58:07;;;;;;;16.23;12.02;;;;;;;;;;5128521;27;20055;-81
2022/08/22 15:00:38;;;;;;;16.33;12.25;;;;;;;;;;5130199;27;20038;-79
2022/08/22 15:03:10;;;;;;;13.05;10.52;;;;;;;;;;5130757;27;20028;-80
2022/08/22 15:05:40;;;;;;;11.55;8.02;;;;;;;;;;5129632;27;20389;-80
2022/08/22 15:08:07;;;;;;;10.20;6.63;;;;;;;;;;5129699;27;20034;-85
2022/08/22 15:10:33;;;;;;;14.20;10.40;;;;;;;;;;5130233;27;20024;-79
2022/08/22 15:13:02;;;;;;;23.45;15.27;;;;;;;;;;5130493;27;20019;-80
2022/08/22 15:15:35;;;;;;;17.98;14.15;;;;;;;;;;5130086;27;20370;-81
2022/08/22 15:18:01;;;;;;;16.38;14.68;;;;;;;;;;5130396;27;20042;-79
2022/08/22 15:20:36;;;;;;;18.10;16.23;;;;;;;;;;5129653;27;20027;-79
2022/08/22 15:23:16;;;;;;;18.05;15.18;;;;;;;;;;5129790;27;20027;-80
2022/08/22 15:25:43;;;;;;;17.50;13.85;;;;;;;;;;5129635;27;20034;-79
2022/08/22 15:28:16;;;;;;;18.80;15.88;;;;;;;;;;5130266;27;20027;-80
2022/08/22 15:30:42;;;;;;;14.73;12.82;;;;;;;;;;5129432;27;20037;-80
2022/08/22 15:33:08;;;;;;;17.75;14.85;;;;;;;;;;5130081;27;20492;-79
2022/08/22 15:35:35;;;;;;;19.52;15.55;;;;;;;;;;5129573;27;20028;-78
2022/08/22 15:38:04;;;;;;;18.48;14.65;;;;;;;;;;5129719;27;20042;-81
2022/08/22 15:40:56;;;;;;;15.57;13.43;;;;;;;;;;5271841;22;21157;-78
2022/08/22 15:43:28;;;;;;;14.60;13.05;;;;;;;;;;5046342;28;20794;-81
2022/08/22 15:46:13;;;;;;;17.35;14.23;;;;;;;;;;5048579;28;20033;-80
2022/08/22 15:48:40;;;;;;;17.17;13.48;;;;;;;;;;5046506;28;20411;-80
2022/08/22 15:51:12;;;;;;;16.38;13.50;;;;;;;;;;5034839;28;20096;-80
2022/08/22 15:53:44;;;;;;;15.55;13.88;;;;;;;;;;5035284;28;20087;-80
2022/08/22 15:56:13;;;;;;;17.40;13.65;;;;;;;;;;5035162;28;20029;-78
2022/08/22 15:58:41;;;;;;;15.82;13.75;;;;;;;;;;5034811;28;20033;-80
2022/08/22 16:01:18;;;;;;;17.40;15.23;;;;;;;;;;5035097;28;20030;-82
2022/08/22 16:04:03;;;;;;;15.05;12.80;;;;;;;;;;5035095;28;20421;-81
2022/08/22 16:06:43;;;;;;;14.75;13.23;;;;;;;;;;5034800;28;20021;-80
2022/08/22 16:09:27;;;;;;;14.95;12.90;;;;;;;;;;5034784;28;20108;-80
2022/08/22 16:11:54;;;;;;;16.80;14.73;;;;;;;;;;5035008;28;20364;-78
2022/08/22 16:26:57;;;;;;;14.13;12.63;;;;;;;;;;6230236;22;1443887;-79
2022/08/22 16:29:34;;;;;;;14.15;12.48;;;;;;;;;;6252943;22;20040;-80
2022/08/22 16:32:02;;;;;;;14.30;12.90;;;;;;;;;;6252436;22;20030;-80
2022/08/22 16:34:49;;;;;;;16.23;14.52;;;;;;;;;;6253148;22;20134;-80